Time;durP1;ratioP1;P1;durP2;ratioP2;P2;SDS_P1;SDS_P2;PMS_P1;PMS_P2;Temp;Humidity;BMP_temperature;BMP_pressure;BME280_temperature;BME280_humidity;BME280_pressure;Samples;Min_cycle;Max_cycle;Signal;HPM_P1;HPM_P2
2022/06/19 00:01:24;;;;;;;21.30;20.40;;;28.40;85.50;;;;;;5071892;28;20482;-71
2022/06/19 00:03:55;;;;;;;22.60;21.67;;;28.40;85.70;;;;;;5071821;28;20526;-70
2022/06/19 00:06:23;;;;;;;23.40;22.30;;;28.40;85.70;;;;;;5071929;28;20467;-71
2022/06/19 00:08:51;;;;;;;23.73;22.43;;;28.40;86.00;;;;;;5071737;28;20960;-71
2022/06/19 00:11:20;;;;;;;22.67;21.50;;;28.40;86.10;;;;;;5071755;28;21039;-71
2022/06/19 00:13:47;;;;;;;24.33;23.03;;;28.40;86.10;;;;;;5071647;28;20527;-71
2022/06/19 00:16:15;;;;;;;23.70;22.47;;;28.40;86.80;;;;;;5071777;28;20498;-71
2022/06/19 00:18:44;;;;;;;21.30;20.30;;;28.40;85.90;;;;;;5071461;28;20478;-71
2022/06/19 00:21:11;;;;;;;22.40;21.40;;;28.40;86.50;;;;;;5071634;28;20442;-71
2022/06/19 00:23:39;;;;;;;23.03;21.93;;;28.40;85.90;;;;;;5071591;28;20447;-71
2022/06/19 00:26:06;;;;;;;22.63;21.40;;;28.40;85.80;;;;;;5071585;28;20483;-71
2022/06/19 00:28:33;;;;;;;25.23;24.13;;;28.40;86.10;;;;;;5071471;28;20825;-71
2022/06/19 00:31:00;;;;;;;23.07;21.87;;;28.40;86.20;;;;;;5071722;28;20806;-71
2022/06/19 00:33:27;;;;;;;21.60;20.40;;;28.40;86.30;;;;;;5071533;28;20529;-71
2022/06/19 00:35:55;;;;;;;21.43;20.43;;;28.30;86.00;;;;;;5071420;28;20571;-71
2022/06/19 00:38:22;;;;;;;21.17;20.20;;;28.40;86.60;;;;;;5071318;28;20870;-71
2022/06/19 00:40:49;;;;;;;24.30;23.10;;;28.30;85.40;;;;;;5071440;28;20894;-71
2022/06/19 00:43:16;;;;;;;21.67;20.50;;;28.30;85.20;;;;;;5071503;28;20945;-71
2022/06/19 00:45:49;;;;;;;23.33;22.23;;;28.30;85.10;;;;;;5071244;28;21023;-71
2022/06/19 00:48:19;;;;;;;21.97;20.87;;;28.30;85.00;;;;;;5071216;28;20530;-71
2022/06/19 00:50:48;;;;;;;22.93;21.53;;;28.30;85.00;;;;;;5071585;28;20486;-71
2022/06/19 00:53:20;;;;;;;23.30;21.80;;;28.30;85.40;;;;;;5071336;28;20530;-71
2022/06/19 00:55:49;;;;;;;23.20;21.80;;;28.30;85.80;;;;;;5071225;28;20517;-72
2022/06/19 00:58:21;;;;;;;23.33;22.07;;;28.30;86.20;;;;;;5071127;28;20522;-72
2022/06/19 01:00:51;;;;;;;22.83;21.37;;;28.30;86.70;;;;;;5071365;28;20498;-71
2022/06/19 01:03:23;;;;;;;22.80;21.63;;;28.30;86.90;;;;;;5071564;28;20447;-71
2022/06/19 01:05:51;;;;;;;23.53;22.33;;;28.30;86.90;;;;;;5075218;28;20501;-71
2022/06/19 01:08:19;;;;;;;24.33;23.20;;;28.30;87.50;;;;;;5074963;28;20487;-71
2022/06/19 01:10:49;;;;;;;23.97;22.40;;;28.20;87.80;;;;;;5075122;28;20522;-71
2022/06/19 01:13:19;;;;;;;22.20;20.90;;;28.20;88.20;;;;;;5075067;28;20470;-71
2022/06/19 01:15:47;;;;;;;23.17;21.90;;;28.20;88.40;;;;;;5074980;28;20924;-71
2022/06/19 01:18:14;;;;;;;21.60;20.60;;;28.20;88.70;;;;;;5074746;28;20448;-71
2022/06/19 01:20:42;;;;;;;21.60;20.50;;;28.20;88.80;;;;;;5074905;28;20526;-71
2022/06/19 01:23:14;;;;;;;24.30;23.10;;;28.20;89.10;;;;;;5074853;28;20522;-71
2022/06/19 01:25:44;;;;;;;22.73;21.50;;;28.20;89.00;;;;;;5074760;28;20486;-72
2022/06/19 01:30:59;;;;;;;23.00;21.93;;;28.10;89.70;;;;;;5074937;28;20418;-71
2022/06/19 01:33:31;;;;;;;23.67;22.20;;;28.10;89.80;;;;;;5074655;28;20989;-71
2022/06/19 01:35:59;;;;;;;22.37;21.23;;;28.10;90.00;;;;;;5074808;28;20483;-71
2022/06/19 01:38:28;;;;;;;23.70;22.47;;;28.10;89.80;;;;;;5074551;28;20847;-72
2022/06/19 01:41:00;;;;;;;24.57;23.27;;;28.10;90.10;;;;;;5074498;28;20542;-72
2022/06/19 01:43:27;;;;;;;22.07;20.83;;;28.10;90.20;;;;;;5074624;28;20484;-72
2022/06/19 01:45:56;;;;;;;22.27;21.23;;;28.10;90.70;;;;;;5074220;28;20911;-72
2022/06/19 01:48:28;;;;;;;24.20;22.63;;;28.10;90.70;;;;;;5074390;28;20500;-72
2022/06/19 01:50:57;;;;;;;22.17;20.97;;;28.00;90.60;;;;;;5074321;28;20447;-72
2022/06/19 01:53:30;;;;;;;22.67;21.50;;;28.00;90.60;;;;;;5074293;28;20564;-72
2022/06/19 01:55:58;;;;;;;22.37;21.40;;;28.00;90.60;;;;;;5074360;28;20563;-72
2022/06/19 01:58:28;;;;;;;23.73;22.53;;;28.00;90.50;;;;;;5074137;28;20549;-71
2022/06/19 02:00:56;;;;;;;24.23;23.13;;;28.00;90.60;;;;;;5074472;28;20529;-71
2022/06/19 02:03:29;;;;;;;22.07;21.10;;;27.90;90.70;;;;;;5074114;28;20482;-71
2022/06/19 02:05:57;;;;;;;23.37;22.17;;;27.90;90.60;;;;;;5074034;28;20513;-71
2022/06/19 02:08:25;;;;;;;24.73;23.17;;;27.90;90.70;;;;;;5073936;28;20443;-71
2022/06/19 02:10:53;;;;;;;24.03;22.80;;;27.80;90.80;;;;;;5074069;28;20534;-71
2022/06/19 02:13:22;;;;;;;23.10;22.07;;;27.80;90.80;;;;;;5073955;28;20529;-72
2022/06/19 02:15:50;;;;;;;23.60;22.27;;;27.80;90.60;;;;;;5073107;28;20489;-71
2022/06/19 02:18:23;;;;;;;23.87;22.77;;;27.80;90.40;;;;;;5073807;28;20882;-71
2022/06/19 02:20:50;;;;;;;22.73;21.37;;;27.80;90.20;;;;;;5073836;28;20447;-71
2022/06/19 02:23:21;;;;;;;22.50;21.47;;;27.70;90.00;;;;;;5073931;28;20922;-71
2022/06/19 02:25:49;;;;;;;25.30;24.00;;;27.70;89.50;;;;;;5073832;28;20898;-71
2022/06/19 02:28:16;;;;;;;22.33;21.03;;;27.70;88.90;;;;;;5073570;28;20880;-71
2022/06/19 02:30:45;;;;;;;22.30;21.30;;;27.70;89.00;;;;;;5073705;28;20439;-71
2022/06/19 02:33:15;;;;;;;23.20;22.20;;;27.70;89.20;;;;;;5073657;28;20479;-71
2022/06/19 02:35:42;;;;;;;24.80;23.40;;;27.70;89.70;;;;;;5073396;28;20591;-71
2022/06/19 02:38:09;;;;;;;22.77;21.63;;;27.70;90.30;;;;;;5073375;28;20479;-71
2022/06/19 02:40:42;;;;;;;20.93;20.00;;;27.60;90.80;;;;;;5073425;28;20522;-71
2022/06/19 02:43:13;;;;;;;22.20;21.20;;;27.60;91.40;;;;;;5073467;28;20446;-71
2022/06/19 02:45:41;;;;;;;22.20;21.33;;;27.50;92.30;;;;;;5098632;22;20907;-64
2022/06/19 02:48:18;;;;;;;22.60;21.63;;;27.40;93.10;;;;;;5064716;28;20446;-64
2022/06/19 02:50:45;;;;;;;21.07;20.27;;;27.40;93.60;;;;;;5053249;28;20479;-64
2022/06/19 02:53:12;;;;;;;22.60;21.70;;;27.40;93.70;;;;;;5053259;28;20479;-63
2022/06/19 02:55:39;;;;;;;18.97;18.23;;;27.40;93.50;;;;;;5053066;28;20571;-63
2022/06/19 02:58:05;;;;;;;18.93;18.20;;;27.40;93.30;;;;;;5052909;28;20448;-63
2022/06/19 03:00:32;;;;;;;18.50;17.60;;;27.40;92.80;;;;;;5053042;28;20513;-63
2022/06/19 03:03:05;;;;;;;19.23;18.33;;;27.40;92.70;;;;;;5052916;28;20539;-64
2022/06/19 03:05:33;;;;;;;18.77;18.00;;;27.30;92.50;;;;;;5052922;28;20551;-62
2022/06/19 03:08:00;;;;;;;18.13;17.43;;;27.20;92.40;;;;;;5052662;28;20815;-63
2022/06/19 03:10:30;;;;;;;17.83;17.23;;;27.20;92.30;;;;;;5052880;28;20554;-63
2022/06/19 03:12:58;;;;;;;18.60;18.00;;;27.20;92.00;;;;;;5052870;28;20511;-63
2022/06/19 03:15:25;;;;;;;17.87;17.17;;;27.10;91.70;;;;;;5052619;28;20515;-63
2022/06/19 03:17:51;;;;;;;18.30;17.50;;;27.10;91.70;;;;;;5052519;28;21006;-64
2022/06/19 03:20:22;;;;;;;18.07;17.37;;;27.00;91.40;;;;;;5052690;28;20451;-63
2022/06/19 03:22:50;;;;;;;18.57;17.80;;;27.00;91.30;;;;;;5052809;28;20472;-63
2022/06/19 03:25:17;;;;;;;18.43;17.73;;;26.90;91.20;;;;;;5052576;28;20523;-63
2022/06/19 03:27:44;;;;;;;19.23;18.33;;;26.90;91.20;;;;;;5051396;28;20491;-63
2022/06/19 03:30:13;;;;;;;18.53;17.83;;;26.90;91.00;;;;;;5052551;28;20817;-64
2022/06/19 03:32:40;;;;;;;16.67;16.00;;;26.80;90.30;;;;;;5052406;28;20487;-64
2022/06/19 03:35:08;;;;;;;18.97;18.03;;;26.70;88.30;;;;;;5052247;28;20990;-63
2022/06/19 03:37:38;;;;;;;18.00;17.20;;;26.30;86.60;;;;;;5052052;28;20495;-63
2022/06/19 03:40:09;;;;;;;18.10;17.20;;;25.80;87.50;;;;;;5052318;28;20451;-63
2022/06/19 03:42:37;;;;;;;17.10;16.40;;;26.00;88.40;;;;;;5052258;28;20448;-62
2022/06/19 03:45:05;;;;;;;17.90;17.30;;;26.10;86.40;;;;;;5052166;28;20466;-62
2022/06/19 03:47:32;;;;;;;17.23;16.53;;;26.10;85.20;;;;;;5051847;28;20463;-61
2022/06/19 03:50:00;;;;;;;18.23;17.33;;;26.10;84.30;;;;;;5052185;28;20451;-60
2022/06/19 03:52:27;;;;;;;17.30;16.50;;;26.10;82.00;;;;;;5052256;28;20868;-62
2022/06/19 03:54:54;;;;;;;16.90;16.30;;;26.10;81.70;;;;;;5051837;28;20494;-61
2022/06/19 03:57:23;;;;;;;19.60;18.50;;;26.00;80.60;;;;;;5051908;28;20472;-65
2022/06/19 03:59:50;;;;;;;18.50;17.70;;;25.90;80.50;;;;;;5051818;28;20448;-63
2022/06/19 04:02:18;;;;;;;18.80;17.90;;;26.00;80.70;;;;;;5051947;28;20505;-62
2022/06/19 04:04:45;;;;;;;18.50;17.70;;;26.00;79.70;;;;;;5051974;28;20451;-62
2022/06/19 04:07:14;;;;;;;19.30;18.40;;;26.00;78.40;;;;;;5051643;28;20465;-64
2022/06/19 04:09:41;;;;;;;21.57;20.73;;;26.10;78.50;;;;;;5051905;28;20486;-64
2022/06/19 04:12:09;;;;;;;23.43;22.10;;;26.10;77.30;;;;;;5051873;28;20479;-64
2022/06/19 04:14:37;;;;;;;21.43;20.13;;;25.90;76.00;;;;;;5051831;28;20955;-65
2022/06/19 04:17:05;;;;;;;20.93;19.93;;;25.80;74.80;;;;;;5051547;28;20488;-61
2022/06/19 04:19:32;;;;;;;22.30;21.10;;;25.70;73.70;;;;;;5051660;28;20447;-62
2022/06/19 04:21:59;;;;;;;22.00;21.00;;;25.60;73.00;;;;;;5051769;28;20479;-64
2022/06/19 04:24:26;;;;;;;20.50;19.80;;;25.60;73.00;;;;;;5051846;28;20475;-64
2022/06/19 04:26:53;;;;;;;20.20;19.40;;;25.60;72.20;;;;;;5051601;28;20469;-63
2022/06/19 04:29:21;;;;;;;19.37;18.73;;;25.60;71.10;;;;;;5051599;28;20523;-63
2022/06/19 04:31:49;;;;;;;21.57;20.53;;;25.60;70.80;;;;;;5051676;28;20448;-64
2022/06/19 04:34:16;;;;;;;20.00;19.10;;;25.60;69.20;;;;;;5051567;28;20444;-65
2022/06/19 04:36:43;;;;;;;19.40;18.63;;;25.50;68.70;;;;;;5051304;28;20573;-64
2022/06/19 04:39:11;;;;;;;20.53;19.77;;;25.40;68.10;;;;;;5051211;28;20510;-64
2022/06/19 04:41:40;;;;;;;18.67;17.97;;;25.40;68.60;;;;;;5051581;28;20531;-64
2022/06/19 04:44:11;;;;;;;22.00;20.60;;;25.40;67.30;;;;;;5051541;28;20535;-60
2022/06/19 04:46:38;;;;;;;19.80;18.90;;;25.30;66.40;;;;;;5051184;28;20554;-61
2022/06/19 04:49:06;;;;;;;20.57;19.47;;;25.40;68.10;;;;;;5051403;28;21010;-61
2022/06/19 04:51:33;;;;;;;20.57;19.40;;;25.50;66.70;;;;;;5051389;28;20535;-61
2022/06/19 04:54:00;;;;;;;21.57;20.57;;;25.40;65.10;;;;;;5051394;28;20468;-62
2022/06/19 04:56:27;;;;;;;20.90;19.83;;;25.40;64.00;;;;;;5051286;28;21070;-61
2022/06/19 04:58:54;;;;;;;19.67;18.97;;;25.40;64.40;;;;;;5050986;28;20970;-61
2022/06/19 05:01:24;;;;;;;20.40;19.60;;;25.40;64.70;;;;;;5051339;28;20452;-61
2022/06/19 05:03:53;;;;;;;19.00;18.10;;;25.40;64.20;;;;;;5051527;28;20531;-63
2022/06/19 05:06:22;;;;;;;19.70;19.00;;;25.50;64.40;;;;;;5051270;28;20464;-63
2022/06/19 05:08:49;;;;;;;19.67;18.97;;;25.50;64.50;;;;;;5051135;28;20527;-64
2022/06/19 05:11:17;;;;;;;19.77;18.70;;;25.50;64.00;;;;;;5051156;28;21068;-62
2022/06/19 05:13:44;;;;;;;18.83;18.13;;;25.40;61.70;;;;;;5051470;28;20448;-62
2022/06/19 05:16:12;;;;;;;19.10;18.40;;;25.20;61.10;;;;;;5051197;28;20490;-60
2022/06/19 05:18:40;;;;;;;19.90;19.10;;;25.30;63.40;;;;;;5051054;28;20870;-61
2022/06/19 05:21:07;;;;;;;18.87;18.27;;;25.40;63.10;;;;;;5051112;28;20519;-61
2022/06/19 05:23:37;;;;;;;20.03;18.83;;;25.50;63.10;;;;;;5051077;28;20444;-61
2022/06/19 05:26:07;;;;;;;21.17;19.97;;;25.50;62.60;;;;;;5051007;28;20609;-61
2022/06/19 05:28:35;;;;;;;19.23;18.50;;;25.60;63.10;;;;;;5050881;28;20478;-61
2022/06/19 05:31:02;;;;;;;18.83;18.23;;;25.60;63.40;;;;;;5051024;28;20450;-62
2022/06/19 05:33:31;;;;;;;20.50;19.50;;;25.70;63.10;;;;;;5051002;28;20502;-61
2022/06/19 05:35:58;;;;;;;19.33;18.73;;;25.70;63.20;;;;;;5050829;28;20583;-61
2022/06/19 05:38:26;;;;;;;19.13;18.43;;;25.70;63.40;;;;;;5050711;28;20487;-61
2022/06/19 05:40:56;;;;;;;20.50;19.60;;;25.70;63.30;;;;;;5050844;28;20472;-61
2022/06/19 05:43:24;;;;;;;20.57;19.70;;;25.70;63.00;;;;;;5050851;28;20531;-61
2022/06/19 05:45:53;;;;;;;20.27;19.57;;;25.80;63.30;;;;;;5050685;28;20559;-61
2022/06/19 05:48:20;;;;;;;20.80;20.00;;;25.80;63.20;;;;;;5050647;28;20479;-61
2022/06/19 05:50:56;;;;;;;19.87;19.07;;;25.80;63.50;;;;;;5051943;28;20455;-61
2022/06/19 05:53:23;;;;;;;20.53;19.53;;;25.80;63.80;;;;;;5054344;28;20531;-60
2022/06/19 05:55:50;;;;;;;19.77;19.00;;;25.90;63.00;;;;;;5054158;28;20519;-61
2022/06/19 05:58:18;;;;;;;19.17;18.37;;;25.90;63.10;;;;;;5054279;28;20448;-60
2022/06/19 06:00:46;;;;;;;20.57;19.50;;;25.90;63.40;;;;;;5054217;28;20546;-61
2022/06/19 06:03:13;;;;;;;19.63;18.93;;;25.90;63.00;;;;;;5054249;28;20898;-61
2022/06/19 06:05:40;;;;;;;19.93;19.10;;;25.90;63.60;;;;;;5054061;28;20468;-61
2022/06/19 06:08:07;;;;;;;19.30;18.70;;;25.90;63.30;;;;;;5053971;28;20480;-61
2022/06/19 06:10:34;;;;;;;21.60;20.60;;;25.90;64.00;;;;;;5054024;28;20950;-63
2022/06/19 06:13:01;;;;;;;20.60;19.60;;;26.00;62.50;;;;;;5053991;28;20484;-63
2022/06/19 06:15:29;;;;;;;20.30;19.20;;;26.00;61.60;;;;;;5053959;28;20529;-64
2022/06/19 06:17:58;;;;;;;22.13;21.20;;;26.00;62.00;;;;;;5053778;28;20572;-64
2022/06/19 06:20:25;;;;;;;20.07;19.37;;;26.00;61.70;;;;;;5054113;28;20452;-64
2022/06/19 06:22:52;;;;;;;21.30;20.30;;;26.00;61.70;;;;;;5053706;28;20480;-64
2022/06/19 06:25:19;;;;;;;19.47;18.77;;;26.00;61.30;;;;;;5053664;28;20943;-64
2022/06/19 06:27:47;;;;;;;21.43;20.53;;;26.10;61.00;;;;;;5053572;28;20440;-63
2022/06/19 06:30:15;;;;;;;20.20;19.50;;;26.10;60.20;;;;;;5053625;28;20448;-64
2022/06/19 06:32:43;;;;;;;21.40;20.50;;;26.10;59.80;;;;;;5053774;28;20475;-64
2022/06/19 06:35:10;;;;;;;20.37;19.43;;;26.10;59.90;;;;;;5053560;28;20943;-63
2022/06/19 06:37:37;;;;;;;20.60;19.70;;;26.10;59.70;;;;;;5053277;28;20571;-64
2022/06/19 06:40:06;;;;;;;22.13;21.03;;;26.10;60.00;;;;;;5053700;28;20911;-64
2022/06/19 06:42:34;;;;;;;20.33;19.50;;;26.10;59.90;;;;;;5053611;28;20455;-64
2022/06/19 06:45:01;;;;;;;20.17;19.43;;;26.10;60.20;;;;;;5053595;28;20527;-63
2022/06/19 06:47:27;;;;;;;20.23;19.30;;;26.10;60.50;;;;;;5053174;28;20551;-62
2022/06/19 06:49:56;;;;;;;22.35;21.45;;;26.20;60.50;;;;;;5053308;28;20518;-61
2022/06/19 06:52:23;;;;;;;20.97;19.93;;;26.20;60.30;;;;;;5053305;28;20228;-60
2022/06/19 06:54:50;;;;;;;21.87;20.80;;;26.20;60.50;;;;;;5053289;28;20476;-57
2022/06/19 06:57:17;;;;;;;22.23;21.43;;;26.20;60.90;;;;;;5053156;28;20515;-65
2022/06/19 06:59:43;;;;;;;22.20;21.10;;;26.30;61.20;;;;;;5053190;28;20447;-62
2022/06/19 07:02:11;;;;;;;20.60;19.80;;;26.20;61.10;;;;;;5053013;28;20480;-65
2022/06/19 07:04:38;;;;;;;21.00;20.10;;;26.20;60.50;;;;;;5053264;28;20479;-64
2022/06/19 07:07:06;;;;;;;22.03;21.03;;;26.10;60.10;;;;;;5053159;28;20499;-65
2022/06/19 07:09:33;;;;;;;21.57;20.67;;;26.00;60.80;;;;;;5053360;28;20966;-64
2022/06/19 07:12:02;;;;;;;19.30;18.50;;;26.00;61.10;;;;;;5052253;28;20436;-61
2022/06/19 07:14:29;;;;;;;23.50;22.17;;;26.00;61.00;;;;;;5052859;28;20444;-57
2022/06/19 07:16:56;;;;;;;23.33;22.03;;;25.90;60.60;;;;;;5052726;28;20524;-66
2022/06/19 07:19:23;;;;;;;18.15;17.35;;;25.90;61.00;;;;;;5051975;28;20436;-61
2022/06/19 07:21:50;;;;;;;21.60;20.60;;;25.90;61.60;;;;;;5052736;28;20477;-61
2022/06/19 07:24:18;;;;;;;21.93;21.03;;;26.00;61.00;;;;;;5052504;28;20452;-61
2022/06/19 07:26:45;;;;;;;21.17;20.37;;;26.00;61.80;;;;;;5052568;28;20882;-66
2022/06/19 07:29:12;;;;;;;17.95;17.15;;;26.00;60.60;;;;;;5051550;28;20527;-61
2022/06/19 07:31:39;;;;;;;22.70;21.70;;;26.00;60.80;;;;;;5052501;28;20202;-60
2022/06/19 07:34:06;;;;;;;21.80;20.43;;;26.00;59.80;;;;;;5052617;28;20531;-61
2022/06/19 07:36:34;;;;;;;22.73;21.57;;;25.90;59.20;;;;;;5052301;28;20490;-60
2022/06/19 07:39:01;;;;;;;23.27;22.07;;;25.90;57.90;;;;;;5052378;28;20814;-64
2022/06/19 07:41:29;;;;;;;22.43;21.43;;;25.90;57.70;;;;;;5052570;28;20542;-61
2022/06/19 07:43:56;;;;;;;20.97;19.60;;;25.80;57.90;;;;;;5052510;28;20508;-65
2022/06/19 07:46:24;;;;;;;20.27;18.83;;;25.80;57.90;;;;;;5052192;28;20475;-65
2022/06/19 07:51:36;;;;;;;16.90;16.00;;;25.80;58.10;;;;;;5051320;28;20423;-65
2022/06/19 07:54:03;;;;;;;21.43;19.87;;;25.80;57.70;;;;;;5052237;28;20308;-64
2022/06/19 07:56:32;;;;;;;18.07;17.47;;;25.90;57.70;;;;;;5051819;28;21006;-66
2022/06/19 07:58:59;;;;;;;21.87;20.53;;;25.90;57.30;;;;;;5051859;28;20522;-66
2022/06/19 08:01:27;;;;;;;19.13;18.10;;;25.80;56.20;;;;;;5052098;28;20557;-65
2022/06/19 08:03:54;;;;;;;19.20;18.30;;;25.80;56.50;;;;;;5052026;28;20535;-65
2022/06/19 08:06:21;;;;;;;17.70;17.10;;;25.80;57.00;;;;;;5051758;28;20903;-66
2022/06/19 08:08:48;;;;;;;18.48;17.58;;;25.80;56.70;;;;;;5051530;28;20873;-61
2022/06/19 08:11:15;;;;;;;18.97;18.17;;;25.70;56.60;;;;;;5051880;28;20229;-61
2022/06/19 08:13:45;;;;;;;19.60;18.70;;;25.70;56.60;;;;;;5051372;28;20451;-63
2022/06/19 08:16:12;;;;;;;18.40;17.70;;;25.70;56.40;;;;;;5051597;28;20475;-63
2022/06/19 08:18:39;;;;;;;19.23;18.27;;;25.70;56.70;;;;;;5051646;28;20994;-63
2022/06/19 08:21:07;;;;;;;18.73;17.80;;;25.70;56.50;;;;;;5051821;28;20440;-63
2022/06/19 08:23:34;;;;;;;19.53;18.63;;;25.70;56.30;;;;;;5051830;28;20489;-61
2022/06/19 08:26:01;;;;;;;20.07;18.80;;;25.60;56.50;;;;;;5051515;28;21054;-62
2022/06/19 08:28:33;;;;;;;16.90;16.07;;;25.60;56.30;;;;;;5051462;28;20479;-62
2022/06/19 08:31:01;;;;;;;18.10;17.30;;;25.70;57.00;;;;;;5051664;28;20806;-63
2022/06/19 08:33:28;;;;;;;18.30;17.40;;;25.70;56.90;;;;;;5051626;28;20448;-63
2022/06/19 08:35:59;;;;;;;19.77;18.73;;;25.70;56.40;;;;;;5051337;28;20464;-64
2022/06/19 08:38:30;;;;;;;19.20;18.20;;;25.70;56.70;;;;;;5051191;28;20483;-63
2022/06/19 08:41:16;;;;;;;18.83;18.10;;;25.70;56.90;;;;;;5051129;28;20452;-63
2022/06/19 08:44:16;;;;;;;18.40;17.70;;;25.70;57.00;;;;;;5051604;28;20928;-62
2022/06/19 08:46:58;;;;;;;19.57;18.67;;;25.70;57.00;;;;;;5076878;22;20533;-65
2022/06/19 08:49:41;;;;;;;20.30;19.23;;;25.70;56.80;;;;;;5071381;28;20910;-65
2022/06/19 08:52:20;;;;;;;19.47;18.80;;;25.70;56.50;;;;;;5071527;28;20439;-65
2022/06/19 08:54:58;;;;;;;19.03;18.13;;;25.70;56.90;;;;;;5071627;28;20443;-66
2022/06/19 08:57:33;;;;;;;19.07;18.27;;;25.70;56.10;;;;;;5070941;28;20483;-66
2022/06/19 09:00:07;;;;;;;18.20;17.50;;;25.70;55.70;;;;;;5071272;28;20539;-65
2022/06/19 09:02:45;;;;;;;18.67;17.80;;;25.70;56.10;;;;;;5071315;28;20944;-65
2022/06/19 09:05:36;;;;;;;18.70;17.70;;;25.60;55.70;;;;;;5071271;28;20525;-65
2022/06/19 09:08:34;;;;;;;18.03;17.23;;;25.60;55.80;;;;;;5071106;28;20778;-65
2022/06/19 09:11:13;;;;;;;18.50;17.83;;;25.60;56.20;;;;;;5045299;28;20522;-68
2022/06/19 09:13:57;;;;;;;18.00;17.20;;;25.60;56.10;;;;;;5071188;28;20934;-68
2022/06/19 09:16:34;;;;;;;17.67;17.07;;;25.60;55.80;;;;;;5071095;28;20459;-68
2022/06/19 09:19:11;;;;;;;18.83;17.93;;;25.50;55.50;;;;;;5070828;28;20435;-70
2022/06/19 09:21:50;;;;;;;19.07;18.20;;;25.50;55.80;;;;;;5071003;28;20447;-70
2022/06/19 09:24:55;;;;;;;17.03;16.53;;;25.60;56.70;;;;;;5071073;28;20537;-70
2022/06/19 09:27:28;;;;;;;17.57;16.97;;;25.70;56.70;;;;;;5074372;28;20463;-67
2022/06/19 09:30:00;;;;;;;18.03;17.33;;;25.70;56.50;;;;;;5074926;28;20482;-67
2022/06/19 09:32:31;;;;;;;19.20;18.27;;;25.70;56.80;;;;;;5074991;28;20816;-67
2022/06/19 09:35:05;;;;;;;18.07;17.27;;;25.70;56.50;;;;;;5075004;28;20538;-67
2022/06/19 09:37:37;;;;;;;17.77;17.07;;;25.70;56.70;;;;;;5074412;28;20515;-68
2022/06/19 09:40:11;;;;;;;18.20;17.03;;;25.80;57.00;;;;;;5074802;28;20474;-70
2022/06/19 09:42:43;;;;;;;18.60;17.90;;;25.80;57.10;;;;;;5074546;28;20621;-70
2022/06/19 09:45:17;;;;;;;17.50;16.90;;;25.80;56.90;;;;;;5074530;28;20494;-70
2022/06/19 09:47:49;;;;;;;17.30;16.70;;;25.80;56.70;;;;;;5074312;28;20502;-70
2022/06/19 09:50:22;;;;;;;16.67;15.97;;;25.80;57.20;;;;;;5074509;28;20441;-71
2022/06/19 09:52:57;;;;;;;19.20;18.10;;;25.90;57.30;;;;;;5074650;28;20538;-68
2022/06/19 09:55:30;;;;;;;18.13;17.13;;;25.80;57.10;;;;;;5074482;28;20449;-70
2022/06/19 09:58:04;;;;;;;20.07;19.07;;;25.90;57.00;;;;;;5074206;28;20575;-69
2022/06/19 10:00:36;;;;;;;18.67;17.97;;;25.90;57.00;;;;;;5074171;28;20566;-69
2022/06/19 10:03:10;;;;;;;19.47;18.50;;;25.90;57.80;;;;;;5074260;28;20522;-68
2022/06/19 10:05:44;;;;;;;17.73;16.93;;;25.90;57.20;;;;;;5074069;28;20481;-71
2022/06/19 10:08:15;;;;;;;18.50;17.60;;;25.90;57.50;;;;;;5073987;28;20526;-70
2022/06/19 10:10:49;;;;;;;18.10;17.03;;;25.90;57.90;;;;;;5073970;28;20479;-71
2022/06/19 10:13:21;;;;;;;18.43;17.63;;;25.90;57.50;;;;;;5073995;28;20466;-70
2022/06/19 10:15:48;;;;;;;17.63;16.80;;;26.00;57.70;;;;;;5073932;28;20447;-71
2022/06/19 10:18:21;;;;;;;18.00;17.30;;;26.00;57.60;;;;;;5073587;28;20491;-71
2022/06/19 10:20:58;;;;;;;18.40;17.60;;;26.00;57.50;;;;;;5073828;28;20453;-68
2022/06/19 10:23:33;;;;;;;17.20;16.30;;;26.00;57.60;;;;;;5073963;28;20501;-71
2022/06/19 10:26:13;;;;;;;18.33;17.23;;;26.00;57.90;;;;;;5073670;28;20502;-70
2022/06/19 10:29:30;;;;;;;17.93;17.07;;;26.00;58.50;;;;;;5073575;28;20435;-71
2022/06/19 10:32:09;;;;;;;19.83;18.87;;;26.00;58.80;;;;;;5011860;28;20442;-69
2022/06/19 10:34:49;;;;;;;19.67;18.50;;;26.00;59.10;;;;;;5064743;28;20461;-69
2022/06/19 10:37:24;;;;;;;19.97;18.60;;;26.00;59.30;;;;;;5072934;28;20482;-68
2022/06/19 10:40:03;;;;;;;26.63;20.60;;;25.90;59.30;;;;;;5073540;28;20538;-70
2022/06/19 10:42:36;;;;;;;17.47;16.87;;;26.00;60.30;;;;;;5073564;28;20929;-69
2022/06/19 10:45:32;;;;;;;18.10;16.87;;;26.00;59.70;;;;;;5073658;28;20530;-71
2022/06/19 10:48:25;;;;;;;19.70;18.87;;;26.00;59.50;;;;;;5073301;28;20462;-69
2022/06/19 10:51:03;;;;;;;18.30;17.47;;;26.00;59.60;;;;;;5073574;28;20475;-68
2022/06/19 10:53:44;;;;;;;18.53;17.67;;;25.90;58.80;;;;;;5073351;28;20477;-69
2022/06/19 10:56:19;;;;;;;18.87;17.87;;;25.90;58.90;;;;;;5073344;28;21029;-66
2022/06/19 10:58:46;;;;;;;18.53;17.53;;;25.90;58.90;;;;;;5072956;28;20478;-65
2022/06/19 11:04:06;;;;;;;18.43;17.50;;;25.90;59.20;;;;;;5073203;28;20447;-67
2022/06/19 11:04:07;;;;;;;19.63;18.40;;;25.90;59.10;;;;;;5073639;28;20926;-66
2022/06/19 11:06:39;;;;;;;19.20;18.20;;;25.90;59.00;;;;;;5073627;28;20880;-67
2022/06/19 11:09:11;;;;;;;17.73;16.80;;;25.90;58.80;;;;;;5073273;28;20500;-67
2022/06/19 11:11:41;;;;;;;16.87;16.27;;;25.90;58.70;;;;;;5073534;28;20530;-66
2022/06/19 11:14:10;;;;;;;18.53;17.47;;;26.00;58.90;;;;;;5073143;28;20951;-66
2022/06/19 11:16:54;;;;;;;18.53;17.83;;;26.00;58.90;;;;;;5072841;28;20493;-67
2022/06/19 11:19:42;;;;;;;19.53;18.27;;;26.00;58.90;;;;;;5073025;28;20574;-67
2022/06/19 11:22:31;;;;;;;19.37;18.30;;;26.10;59.00;;;;;;5073525;28;20842;-67
2022/06/19 11:25:24;;;;;;;19.10;18.33;;;26.10;58.90;;;;;;5073943;28;20950;-67
2022/06/19 11:27:53;;;;;;;18.77;18.07;;;26.10;58.60;;;;;;5072562;28;20866;-68
2022/06/19 11:30:28;;;;;;;18.60;17.70;;;26.10;60.20;;;;;;5072676;28;20857;-66
2022/06/19 11:32:55;;;;;;;20.87;19.67;;;26.00;59.50;;;;;;5072623;28;20442;-70
2022/06/19 11:35:23;;;;;;;21.20;20.10;;;26.10;61.40;;;;;;5072401;28;20447;-64
2022/06/19 11:37:52;;;;;;;20.53;19.40;;;26.10;61.70;;;;;;5072027;28;20993;-64
2022/06/19 11:40:30;;;;;;;21.10;19.80;;;26.10;61.20;;;;;;5072254;28;20479;-63
2022/06/19 11:42:59;;;;;;;22.93;21.50;;;26.10;60.90;;;;;;5072350;28;20443;-63
2022/06/19 11:45:29;;;;;;;20.37;19.27;;;26.10;60.50;;;;;;5072204;28;20486;-63
2022/06/19 11:48:12;;;;;;;20.30;19.40;;;26.10;60.30;;;;;;5071386;28;20977;-63
2022/06/19 11:50:47;;;;;;;21.93;20.73;;;26.10;60.20;;;;;;5072364;28;20447;-63
2022/06/19 11:53:17;;;;;;;20.27;19.37;;;26.10;60.00;;;;;;5072012;28;20494;-63
2022/06/19 11:55:48;;;;;;;20.30;19.30;;;26.10;59.80;;;;;;5071955;28;20534;-63
2022/06/19 11:58:22;;;;;;;21.33;20.33;;;26.10;59.80;;;;;;5071734;28;20519;-63
2022/06/19 12:00:59;;;;;;;20.23;19.33;;;26.10;59.90;;;;;;5072017;28;20442;-63
2022/06/19 12:03:30;;;;;;;22.27;21.20;;;26.10;59.60;;;;;;5071857;28;20475;-63
2022/06/19 12:05:59;;;;;;;19.37;18.47;;;26.10;60.20;;;;;;5071740;28;20510;-63
2022/06/19 12:08:29;;;;;;;19.13;18.30;;;26.10;59.60;;;;;;5071853;28;20530;-62
2022/06/19 12:11:00;;;;;;;18.17;17.37;;;26.10;59.40;;;;;;5071740;28;20819;-62
2022/06/19 12:13:30;;;;;;;19.77;18.87;;;26.10;59.60;;;;;;5071891;28;20873;-62
2022/06/19 12:16:02;;;;;;;19.60;18.60;;;26.10;58.90;;;;;;5071610;28;20566;-63
2022/06/19 12:18:30;;;;;;;21.20;20.10;;;26.10;58.90;;;;;;5071698;28;20483;-62
2022/06/19 12:21:00;;;;;;;19.23;18.43;;;26.10;59.40;;;;;;5071765;28;20448;-62
2022/06/19 12:23:32;;;;;;;20.80;19.87;;;26.10;58.80;;;;;;5071842;28;20443;-63
2022/06/19 12:26:03;;;;;;;20.40;19.10;;;26.10;58.70;;;;;;5071597;28;20473;-62
2022/06/19 12:28:36;;;;;;;19.50;18.57;;;26.10;58.70;;;;;;5071526;28;20439;-62
2022/06/19 12:31:06;;;;;;;18.67;17.77;;;26.10;58.40;;;;;;5071676;28;20466;-62
2022/06/19 12:33:40;;;;;;;21.77;19.80;;;26.10;58.30;;;;;;5071653;28;20446;-62
2022/06/19 12:36:11;;;;;;;19.03;18.30;;;26.10;58.30;;;;;;5071537;28;20467;-63
2022/06/19 12:38:39;;;;;;;19.70;18.80;;;26.10;58.50;;;;;;5071253;28;20574;-63
2022/06/19 12:41:17;;;;;;;20.20;19.20;;;26.10;58.50;;;;;;5071560;28;20842;-63
2022/06/19 12:43:55;;;;;;;19.13;18.50;;;26.10;58.50;;;;;;5071499;28;20446;-63
2022/06/19 12:46:36;;;;;;;20.10;19.30;;;26.10;58.50;;;;;;5071351;28;20471;-63
2022/06/19 12:49:15;;;;;;;18.80;18.10;;;26.10;58.20;;;;;;5071259;28;20467;-63
2022/06/19 12:51:52;;;;;;;20.20;19.40;;;26.10;58.20;;;;;;5071398;28;20858;-63